Time;durP1;ratioP1;P1;durP2;ratioP2;P2;SDS_P1;SDS_P2;PMS_P1;PMS_P2;Temp;Humidity;BMP_temperature;BMP_pressure;BME280_temperature;BME280_humidity;BME280_pressure;Samples;Min_cycle;Max_cycle;Signal;HPM_P1;HPM_P2
2023/06/13 00:00:17;;;;;;;2.60;1.30;;;22.10;32.10;;;;;;2340189;54;21036;-76
2023/06/13 00:02:44;;;;;;;2.50;1.30;;;22.10;32.10;;;;;;2587054;53;20933;-76
2023/06/13 00:05:11;;;;;;;3.15;1.25;;;22.10;32.20;;;;;;2587783;53;20905;-74
2023/06/13 00:07:37;;;;;;;2.75;1.40;;;22.10;32.30;;;;;;2580327;53;21027;-74
2023/06/13 00:10:05;;;;;;;2.55;1.30;;;22.00;32.30;;;;;;2586511;53;21351;-75
2023/06/13 00:12:32;;;;;;;2.50;1.20;;;22.00;32.30;;;;;;2588180;53;21009;-77
2023/06/13 00:15:01;;;;;;;3.10;1.23;;;22.00;32.30;;;;;;2587389;53;21809;-76
2023/06/13 00:17:29;;;;;;;2.85;1.45;;;21.90;32.40;;;;;;2588275;53;20940;-75
2023/06/13 00:19:56;;;;;;;3.10;1.20;;;21.90;32.60;;;;;;2587792;53;21028;-75
2023/06/13 00:22:24;;;;;;;2.75;1.50;;;21.90;32.60;;;;;;2584597;53;21481;-75
2023/06/13 00:24:51;;;;;;;2.62;1.33;;;21.80;32.60;;;;;;2584359;53;21509;-76
2023/06/13 00:27:17;;;;;;;2.87;1.40;;;21.80;32.70;;;;;;2342017;55;20932;-74
2023/06/13 00:29:43;;;;;;;2.70;1.33;;;21.80;32.70;;;;;;2588031;53;20972;-75
2023/06/13 00:32:10;;;;;;;2.25;1.12;;;21.80;32.80;;;;;;2584978;53;20913;-74
2023/06/13 00:34:38;;;;;;;2.72;1.45;;;21.70;32.80;;;;;;2340695;55;20925;-74
2023/06/13 00:37:12;;;;;;;3.15;1.37;;;21.70;32.80;;;;;;2553913;53;20956;-74
2023/06/13 00:39:39;;;;;;;2.28;1.10;;;21.70;32.90;;;;;;2562990;53;21019;-75
2023/06/13 00:42:06;;;;;;;2.20;1.20;;;21.70;32.90;;;;;;2580110;53;21000;-75
2023/06/13 00:44:34;;;;;;;2.92;1.37;;;21.60;32.80;;;;;;2588122;53;20988;-74
2023/06/13 00:47:02;;;;;;;2.58;1.10;;;21.60;32.90;;;;;;2587626;53;20936;-74
2023/06/13 00:49:28;;;;;;;3.25;1.60;;;21.60;33.00;;;;;;2587955;53;20972;-73
2023/06/13 00:51:56;;;;;;;2.90;1.67;;;21.60;33.10;;;;;;2575010;53;21648;-75
2023/06/13 00:54:23;;;;;;;3.12;1.60;;;21.50;33.00;;;;;;2556670;53;21031;-74
2023/06/13 00:56:50;;;;;;;2.78;1.33;;;21.50;33.10;;;;;;2587407;53;20968;-74
2023/06/13 00:59:16;;;;;;;3.70;1.75;;;21.50;33.10;;;;;;2588308;53;20909;-72
2023/06/13 01:01:43;;;;;;;2.47;1.40;;;21.50;33.20;;;;;;2588072;53;20929;-74
2023/06/13 01:04:13;;;;;;;3.20;1.65;;;21.40;33.20;;;;;;2587185;53;20996;-74
2023/06/13 01:06:41;;;;;;;2.67;1.40;;;21.50;33.30;;;;;;2563646;53;20980;-74
2023/06/13 01:09:08;;;;;;;2.85;1.40;;;21.40;33.30;;;;;;2577459;53;20932;-73
2023/06/13 01:12:51;;;;;;;3.25;1.33;;;21.40;33.20;;;;;;2565480;53;21551;-71
2023/06/13 01:15:22;;;;;;;3.65;1.37;;;21.40;33.50;;;;;;2342399;54;20944;-74
2023/06/13 01:17:57;;;;;;;3.47;1.58;;;21.40;33.30;;;;;;2587341;53;20929;-74
2023/06/13 01:20:26;;;;;;;3.30;1.70;;;21.40;33.40;;;;;;2583112;53;21493;-74
2023/06/13 01:24:35;;;;;;;3.70;1.80;;;21.40;33.70;;;;;;2586979;53;20943;-71
2023/06/13 01:27:05;;;;;;;3.15;1.27;;;21.50;33.80;;;;;;2587458;53;20956;-74
2023/06/13 01:29:33;;;;;;;2.40;1.27;;;21.50;33.60;;;;;;2588575;53;21429;-73
2023/06/13 01:32:00;;;;;;;3.17;1.70;;;21.50;33.50;;;;;;2586940;53;21769;-73
2023/06/13 01:34:29;;;;;;;3.53;1.77;;;21.50;33.60;;;;;;2552411;53;20947;-75
2023/06/13 01:36:57;;;;;;;3.15;1.27;;;21.50;33.60;;;;;;2556561;53;21012;-73
2023/06/13 01:39:23;;;;;;;3.65;1.90;;;21.50;33.60;;;;;;2588072;53;20941;-73
2023/06/13 01:41:51;;;;;;;3.45;1.87;;;21.50;33.60;;;;;;2588387;53;21469;-75
2023/06/13 01:44:19;;;;;;;3.00;1.52;;;21.50;33.70;;;;;;2342179;55;21525;-74
2023/06/13 01:47:07;;;;;;;4.10;1.85;;;21.50;33.70;;;;;;2588106;53;21344;-74
2023/06/13 01:51:10;;;;;;;2.85;1.50;;;21.50;33.90;;;;;;2321747;54;21526;-71
2023/06/13 01:53:48;;;;;;;3.00;1.58;;;21.50;34.00;;;;;;2586427;53;21032;-74
2023/06/13 01:56:18;;;;;;;3.47;1.77;;;21.60;33.80;;;;;;2557676;53;21128;-75
2023/06/13 01:58:55;;;;;;;2.87;1.40;;;21.60;33.80;;;;;;2588669;53;21795;-73
2023/06/13 02:01:27;;;;;;;2.70;1.45;;;21.60;33.80;;;;;;2342715;54;20968;-73
2023/06/13 02:03:54;;;;;;;3.20;1.60;;;21.60;33.80;;;;;;2318619;54;20994;-73
2023/06/13 02:06:20;;;;;;;3.70;1.55;;;21.60;33.70;;;;;;2587413;53;20992;-71
2023/06/13 02:08:56;;;;;;;2.83;1.60;;;21.60;33.70;;;;;;2341133;54;20951;-74
2023/06/13 02:11:23;;;;;;;3.05;1.55;;;21.70;34.00;;;;;;2342636;54;20972;-73
2023/06/13 02:13:50;;;;;;;2.87;1.52;;;21.70;34.00;;;;;;2586681;53;20988;-75
2023/06/13 02:16:19;;;;;;;2.97;1.50;;;21.70;34.00;;;;;;2341399;54;20945;-74
2023/06/13 02:18:47;;;;;;;4.65;1.70;;;21.70;33.90;;;;;;2587084;53;20925;-74
2023/06/13 02:21:15;;;;;;;2.97;1.60;;;21.80;33.90;;;;;;2586224;53;21426;-73
2023/06/13 02:23:44;;;;;;;3.62;1.85;;;21.70;34.00;;;;;;2588754;53;21032;-74
2023/06/13 02:26:10;;;;;;;3.60;1.55;;;21.80;34.10;;;;;;2590642;53;20933;-74
2023/06/13 02:28:37;;;;;;;4.43;1.70;;;21.80;34.10;;;;;;2589433;53;21055;-74
2023/06/13 02:31:03;;;;;;;3.80;2.05;;;21.80;34.10;;;;;;2343330;54;20951;-74
2023/06/13 02:33:31;;;;;;;4.12;1.90;;;21.80;34.10;;;;;;2342857;54;21020;-73
2023/06/13 02:35:57;;;;;;;2.87;1.50;;;21.80;34.10;;;;;;2589231;53;20964;-75
2023/06/13 02:38:27;;;;;;;3.47;1.90;;;21.90;34.20;;;;;;2589378;53;20929;-73
2023/06/13 02:40:54;;;;;;;3.05;1.70;;;21.90;34.30;;;;;;2588928;53;20917;-73
2023/06/13 02:43:21;;;;;;;3.62;1.83;;;21.90;34.30;;;;;;2588890;53;21052;-73
2023/06/13 02:45:49;;;;;;;3.12;1.80;;;21.90;34.30;;;;;;2342665;54;20941;-73
2023/06/13 02:48:20;;;;;;;4.32;1.67;;;21.90;34.30;;;;;;2588689;53;20952;-73
2023/06/13 02:50:46;;;;;;;3.22;1.73;;;22.00;34.20;;;;;;2342057;55;21027;-76
2023/06/13 02:53:14;;;;;;;3.53;1.73;;;22.00;34.10;;;;;;2335005;54;21044;-73
2023/06/13 02:55:46;;;;;;;3.47;1.60;;;22.00;34.10;;;;;;2569097;53;20992;-74
2023/06/13 02:58:13;;;;;;;3.10;1.65;;;22.00;34.00;;;;;;2588631;53;21056;-75
2023/06/13 03:00:39;;;;;;;3.12;1.55;;;22.10;34.00;;;;;;2588679;53;20956;-73
2023/06/13 03:03:07;;;;;;;3.08;1.80;;;22.10;34.00;;;;;;2588378;53;21076;-73
2023/06/13 03:05:36;;;;;;;3.33;1.80;;;22.10;34.00;;;;;;2318971;54;21232;-73
2023/06/13 03:08:04;;;;;;;2.83;1.50;;;22.10;34.10;;;;;;2585361;53;20933;-73
2023/06/13 03:10:32;;;;;;;2.72;1.30;;;22.10;34.00;;;;;;2342718;55;20932;-73
2023/06/13 03:12:59;;;;;;;3.08;1.67;;;22.10;33.90;;;;;;2586939;53;20933;-73
2023/06/13 03:15:27;;;;;;;3.37;1.70;;;22.20;33.90;;;;;;2343549;54;20969;-76
2023/06/13 03:17:54;;;;;;;3.92;1.80;;;22.20;34.00;;;;;;2588987;53;20936;-73
2023/06/13 03:20:21;;;;;;;4.22;2.10;;;22.20;34.10;;;;;;2342392;55;21040;-72
2023/06/13 03:22:52;;;;;;;3.22;1.67;;;22.20;34.10;;;;;;2342463;55;20956;-74
2023/06/13 03:25:19;;;;;;;3.53;1.95;;;22.20;34.10;;;;;;2588373;53;20953;-73
2023/06/13 03:27:46;;;;;;;3.08;1.55;;;22.20;34.00;;;;;;2588866;53;22607;-73
2023/06/13 03:30:12;;;;;;;3.92;2.00;;;22.30;34.10;;;;;;2588936;53;21000;-74
2023/06/13 03:32:39;;;;;;;3.55;1.60;;;22.30;34.20;;;;;;2342556;55;20968;-73
2023/06/13 03:35:05;;;;;;;2.35;1.40;;;22.10;33.90;;;;;;2323906;54;20987;-73
2023/06/13 03:37:32;;;;;;;3.15;1.77;;;22.30;34.10;;;;;;2582053;53;21017;-74
2023/06/13 03:39:58;;;;;;;3.35;1.62;;;22.30;34.00;;;;;;2315890;54;20984;-73
2023/06/13 03:42:24;;;;;;;3.55;1.70;;;22.30;34.00;;;;;;2343000;55;21497;-76
2023/06/13 03:44:51;;;;;;;2.55;1.40;;;22.30;34.00;;;;;;2587938;53;21004;-75
2023/06/13 03:47:17;;;;;;;2.75;1.40;;;22.30;33.90;;;;;;2588782;53;20992;-73
2023/06/13 03:49:44;;;;;;;3.03;1.62;;;22.30;33.90;;;;;;2568187;53;20978;-74
2023/06/13 03:52:19;;;;;;;2.45;1.25;;;22.30;34.00;;;;;;2560296;53;20960;-73
2023/06/13 03:54:45;;;;;;;3.78;1.52;;;22.30;34.10;;;;;;2587717;53;20972;-74
2023/06/13 03:57:12;;;;;;;2.80;1.33;;;22.30;34.00;;;;;;2588592;53;20960;-73
2023/06/13 03:59:42;;;;;;;3.35;1.60;;;22.30;34.10;;;;;;2341808;54;20968;-73
2023/06/13 04:02:12;;;;;;;3.00;1.37;;;22.30;34.20;;;;;;2587518;53;20917;-74
2023/06/13 04:04:44;;;;;;;3.40;1.80;;;22.20;34.00;;;;;;2588504;53;21008;-74
2023/06/13 04:07:10;;;;;;;3.30;1.60;;;22.20;34.20;;;;;;2588336;53;21417;-74
2023/06/13 04:09:37;;;;;;;2.97;1.50;;;22.20;34.20;;;;;;2342024;55;21477;-74
2023/06/13 04:12:06;;;;;;;2.72;1.40;;;22.20;34.20;;;;;;2588663;53;21394;-74
2023/06/13 04:14:33;;;;;;;2.95;1.70;;;22.10;34.10;;;;;;2588847;53;20976;-75
2023/06/13 04:16:59;;;;;;;3.00;1.58;;;22.20;34.20;;;;;;2588032;53;20982;-73
2023/06/13 04:19:25;;;;;;;2.62;1.20;;;22.20;34.20;;;;;;2319651;54;21901;-74
2023/06/13 04:21:53;;;;;;;3.20;1.40;;;22.10;34.10;;;;;;2340670;54;21004;-74
2023/06/13 04:24:21;;;;;;;2.60;1.20;;;22.10;34.10;;;;;;2588046;53;20917;-74
2023/06/13 04:26:47;;;;;;;3.05;1.37;;;22.10;34.10;;;;;;2341416;54;20968;-74
2023/06/13 04:29:15;;;;;;;2.70;1.20;;;22.10;34.10;;;;;;2342249;55;21136;-75
2023/06/13 04:31:42;;;;;;;3.80;1.80;;;22.10;34.20;;;;;;2554017;53;21021;-76
2023/06/13 04:34:11;;;;;;;3.45;1.40;;;22.00;34.20;;;;;;2554540;53;21495;-73
2023/06/13 04:36:38;;;;;;;3.67;1.30;;;22.00;34.30;;;;;;2569905;53;20968;-76
2023/06/13 04:39:08;;;;;;;2.85;1.27;;;22.00;34.30;;;;;;2573036;53;20936;-74
2023/06/13 04:41:37;;;;;;;3.00;1.52;;;22.00;34.40;;;;;;2588315;53;21465;-73
2023/06/13 04:44:10;;;;;;;3.30;1.50;;;22.00;34.40;;;;;;2588906;53;20959;-74
2023/06/13 04:46:43;;;;;;;2.85;1.37;;;21.90;34.60;;;;;;2588345;53;20953;-72
2023/06/13 04:49:11;;;;;;;3.40;1.30;;;21.90;34.80;;;;;;2588815;53;21016;-73
2023/06/13 04:51:38;;;;;;;2.60;1.23;;;21.90;34.80;;;;;;2342612;55;21007;-72
2023/06/13 04:54:09;;;;;;;3.10;1.60;;;21.90;35.10;;;;;;2563471;53;20979;-72
2023/06/13 04:56:37;;;;;;;2.80;1.12;;;21.90;35.30;;;;;;2341041;54;20988;-71
2023/06/13 04:59:08;;;;;;;3.42;1.40;;;21.90;35.30;;;;;;2579552;53;20992;-72
2023/06/13 05:01:37;;;;;;;2.62;1.20;;;21.80;35.10;;;;;;2323593;54;20921;-74
2023/06/13 05:04:06;;;;;;;2.50;1.27;;;21.80;35.10;;;;;;2556405;53;20912;-72
2023/06/13 05:06:37;;;;;;;2.67;1.20;;;21.80;35.20;;;;;;2554456;53;21012;-75
2023/06/13 05:09:06;;;;;;;2.65;1.25;;;21.80;35.20;;;;;;2586344;53;21027;-70
2023/06/13 05:11:32;;;;;;;2.80;1.02;;;21.80;35.30;;;;;;2555114;53;21059;-76
2023/06/13 05:13:59;;;;;;;3.03;1.40;;;21.80;35.30;;;;;;2549602;54;20973;-73
2023/06/13 05:16:29;;;;;;;3.10;1.60;;;21.80;35.50;;;;;;2549522;54;21390;-70
2023/06/13 05:19:00;;;;;;;3.58;1.50;;;21.70;35.60;;;;;;2553918;53;20981;-73
2023/06/13 05:21:29;;;;;;;3.55;1.70;;;21.70;35.70;;;;;;2581640;53;21776;-71
2023/06/13 05:23:57;;;;;;;3.12;1.58;;;21.70;35.60;;;;;;2566084;53;20996;-73
2023/06/13 05:26:23;;;;;;;3.08;1.40;;;21.70;35.60;;;;;;2560425;53;20896;-74
2023/06/13 05:28:53;;;;;;;3.00;1.45;;;21.70;35.50;;;;;;2582500;53;20975;-76
2023/06/13 05:31:19;;;;;;;3.15;1.60;;;21.70;35.60;;;;;;2308190;54;20901;-72
2023/06/13 05:33:46;;;;;;;2.47;1.33;;;21.70;35.70;;;;;;2553637;53;20939;-74
2023/06/13 05:36:13;;;;;;;3.75;1.42;;;21.70;35.70;;;;;;2320130;55;20989;-73
2023/06/13 05:38:40;;;;;;;4.05;1.55;;;21.60;35.60;;;;;;2563274;53;20945;-72
2023/06/13 05:41:06;;;;;;;2.83;1.52;;;21.70;35.70;;;;;;2343072;55;20944;-72
2023/06/13 05:43:33;;;;;;;2.87;1.50;;;21.70;35.70;;;;;;2588652;53;21473;-73
2023/06/13 05:45:59;;;;;;;3.12;1.40;;;21.70;35.60;;;;;;2340854;54;20927;-73
2023/06/13 05:48:26;;;;;;;3.00;1.62;;;21.70;35.70;;;;;;2587236;53;20906;-72
2023/06/13 05:50:52;;;;;;;3.00;1.60;;;21.70;35.50;;;;;;2342405;54;20920;-74
2023/06/13 05:53:18;;;;;;;3.53;1.40;;;21.70;35.60;;;;;;2342472;55;21491;-72
2023/06/13 05:55:47;;;;;;;2.60;1.25;;;21.80;35.60;;;;;;2588412;53;21481;-74
2023/06/13 05:58:13;;;;;;;2.87;1.42;;;21.80;35.40;;;;;;2588840;53;20920;-72
2023/06/13 06:00:42;;;;;;;2.70;1.30;;;21.80;35.40;;;;;;2342287;55;20936;-72
2023/06/13 06:03:09;;;;;;;2.70;1.33;;;21.90;35.50;;;;;;2588564;53;20961;-72
2023/06/13 06:05:41;;;;;;;3.28;1.80;;;21.90;35.50;;;;;;2572363;53;21128;-72
2023/06/13 06:08:07;;;;;;;2.97;1.30;;;22.00;35.60;;;;;;2571240;53;21386;-71
2023/06/13 06:10:34;;;;;;;2.67;1.40;;;22.00;35.50;;;;;;2342110;55;21469;-72
2023/06/13 06:13:00;;;;;;;2.67;1.23;;;22.00;35.40;;;;;;2588417;53;20921;-73
2023/06/13 06:15:31;;;;;;;3.25;1.40;;;22.10;35.30;;;;;;2342042;54;20952;-75
2023/06/13 06:18:00;;;;;;;3.00;1.50;;;22.10;35.20;;;;;;2586954;53;20957;-73
2023/06/13 06:20:26;;;;;;;2.78;1.30;;;22.10;35.30;;;;;;2587381;53;21398;-73
2023/06/13 06:22:53;;;;;;;2.70;1.42;;;22.20;35.50;;;;;;2583407;53;20960;-74
2023/06/13 06:25:19;;;;;;;3.45;1.52;;;22.30;35.50;;;;;;2588614;53;20948;-74
2023/06/13 06:27:49;;;;;;;3.40;1.48;;;22.30;35.40;;;;;;2324099;54;20928;-73
2023/06/13 06:30:16;;;;;;;2.67;1.25;;;22.30;35.10;;;;;;2335666;54;20948;-72
2023/06/13 06:32:43;;;;;;;3.42;1.50;;;22.40;35.10;;;;;;2588042;53;20964;-72
2023/06/13 06:35:12;;;;;;;2.53;1.12;;;22.40;35.20;;;;;;2341596;55;21071;-75
2023/06/13 06:37:43;;;;;;;3.25;1.60;;;22.50;35.20;;;;;;2586235;53;21819;-73
2023/06/13 06:40:10;;;;;;;3.00;1.65;;;22.60;35.30;;;;;;2585621;53;20992;-73
2023/06/13 06:42:36;;;;;;;2.90;1.50;;;22.60;35.40;;;;;;2587148;53;21192;-73
2023/06/13 06:45:04;;;;;;;2.95;1.40;;;22.70;35.40;;;;;;2588149;53;21473;-72
2023/06/13 06:47:31;;;;;;;2.53;1.40;;;22.70;35.20;;;;;;2587088;53;21725;-75
2023/06/13 06:49:57;;;;;;;2.83;1.35;;;22.80;35.00;;;;;;2588214;53;20992;-73
2023/06/13 06:52:24;;;;;;;3.22;1.50;;;22.80;34.90;;;;;;2585761;53;21433;-75
2023/06/13 06:54:50;;;;;;;2.28;1.08;;;22.90;35.10;;;;;;2340064;55;20960;-73
2023/06/13 06:57:17;;;;;;;2.25;1.20;;;23.00;34.90;;;;;;2586502;53;21281;-73
2023/06/13 06:59:45;;;;;;;2.80;1.52;;;23.00;34.90;;;;;;2563075;53;21003;-73
2023/06/13 07:02:11;;;;;;;2.60;1.30;;;23.10;34.90;;;;;;2578196;53;21004;-74
2023/06/13 07:04:40;;;;;;;3.42;1.20;;;23.10;34.80;;;;;;2340944;55;20937;-73
2023/06/13 07:07:07;;;;;;;2.60;1.25;;;23.20;34.80;;;;;;2341367;55;21056;-74
2023/06/13 07:09:33;;;;;;;6.10;1.50;;;23.20;34.60;;;;;;2340918;55;20956;-72
2023/06/13 07:12:00;;;;;;;2.67;1.30;;;23.30;34.40;;;;;;2586630;53;21008;-74
2023/06/13 07:14:26;;;;;;;2.90;1.40;;;23.20;34.20;;;;;;2586522;53;21169;-74
2023/06/13 07:16:55;;;;;;;2.97;1.55;;;23.40;34.30;;;;;;2586807;53;21008;-75
2023/06/13 07:19:23;;;;;;;2.45;1.23;;;23.40;34.30;;;;;;2587792;53;20929;-73
2023/06/13 07:21:49;;;;;;;2.55;1.20;;;23.50;34.30;;;;;;2586723;53;21016;-73
2023/06/13 07:24:20;;;;;;;3.12;1.20;;;23.60;34.00;;;;;;2586254;53;21435;-74
2023/06/13 07:26:49;;;;;;;3.42;1.45;;;23.60;33.90;;;;;;2586863;53;21040;-73
2023/06/13 07:29:16;;;;;;;3.10;1.50;;;23.60;33.70;;;;;;2582282;53;21016;-73
2023/06/13 07:31:42;;;;;;;3.08;1.30;;;23.70;33.70;;;;;;2587303;53;20933;-73
2023/06/13 07:34:09;;;;;;;2.80;1.35;;;23.80;33.70;;;;;;2587559;53;20913;-73
2023/06/13 07:36:45;;;;;;;3.97;1.17;;;23.80;33.70;;;;;;2344970;54;20964;-73
2023/06/13 07:39:12;;;;;;;3.15;1.23;;;23.80;33.40;;;;;;2586344;53;20961;-71
2023/06/13 07:41:39;;;;;;;3.95;1.45;;;23.90;33.50;;;;;;2586954;53;20972;-74
2023/06/13 07:44:06;;;;;;;2.60;1.27;;;23.90;33.10;;;;;;2586947;53;21504;-76
2023/06/13 07:46:32;;;;;;;2.70;1.20;;;24.00;33.20;;;;;;2587189;53;20940;-73
2023/06/13 07:48:58;;;;;;;3.28;1.37;;;24.10;33.20;;;;;;2587618;53;20932;-75
2023/06/13 07:51:25;;;;;;;2.70;1.30;;;24.10;33.10;;;;;;2586378;53;21504;-76
2023/06/13 07:53:52;;;;;;;2.70;1.25;;;24.20;33.20;;;;;;2586587;53;20921;-74
2023/06/13 07:56:19;;;;;;;3.45;1.60;;;24.20;33.10;;;;;;2579738;53;21788;-74
2023/06/13 07:58:47;;;;;;;2.58;1.27;;;24.30;33.00;;;;;;2561996;53;20953;-74
2023/06/13 08:01:13;;;;;;;3.10;1.27;;;24.30;33.00;;;;;;2585482;53;20945;-72
2023/06/13 08:03:39;;;;;;;2.90;1.40;;;24.40;33.10;;;;;;2586732;53;20932;-74
2023/06/13 08:06:07;;;;;;;3.10;1.48;;;24.50;33.30;;;;;;2579870;53;20979;-73
2023/06/13 08:08:36;;;;;;;4.55;1.45;;;24.40;33.20;;;;;;2338430;54;22098;-73
2023/06/13 08:11:02;;;;;;;2.70;1.33;;;24.60;33.20;;;;;;2331893;54;20972;-73
2023/06/13 08:13:29;;;;;;;2.95;1.30;;;24.70;32.90;;;;;;2563637;53;21003;-74
2023/06/13 08:15:55;;;;;;;2.53;1.17;;;24.80;32.70;;;;;;2585637;53;20980;-73
2023/06/13 08:18:27;;;;;;;3.53;1.30;;;24.80;32.50;;;;;;2579564;53;21233;-73
2023/06/13 08:20:53;;;;;;;2.90;1.23;;;24.80;32.40;;;;;;2531204;53;21032;-74
2023/06/13 08:23:20;;;;;;;2.97;1.48;;;24.90;32.40;;;;;;2339471;54;21029;-73
2023/06/13 08:25:46;;;;;;;2.70;1.45;;;25.00;32.30;;;;;;2339848;55;20996;-73
2023/06/13 08:28:13;;;;;;;3.12;1.50;;;25.00;32.20;;;;;;2587110;53;21481;-73
2023/06/13 08:30:39;;;;;;;2.97;1.65;;;25.00;32.00;;;;;;2585971;53;20952;-74
2023/06/13 08:33:08;;;;;;;3.05;1.35;;;25.10;31.90;;;;;;2340330;55;21489;-74
2023/06/13 08:35:35;;;;;;;2.25;1.02;;;25.20;32.00;;;;;;2586148;53;20936;-71
2023/06/13 08:38:07;;;;;;;2.65;1.17;;;25.20;31.80;;;;;;2585928;53;20953;-71
2023/06/13 08:40:37;;;;;;;3.53;1.40;;;25.30;32.20;;;;;;2586477;53;20945;-69
2023/06/13 08:43:06;;;;;;;5.12;1.65;;;25.30;31.50;;;;;;2339795;55;20968;-70
2023/06/13 08:45:32;;;;;;;3.37;1.40;;;25.40;31.30;;;;;;2586464;53;21966;-67
2023/06/13 08:48:02;;;;;;;2.42;1.27;;;25.50;31.40;;;;;;2562581;53;20976;-69
2023/06/13 08:50:29;;;;;;;3.17;1.30;;;25.50;31.20;;;;;;2578765;53;21059;-73
2023/06/13 08:52:56;;;;;;;2.53;1.20;;;25.60;31.10;;;;;;2585780;53;21095;-71
2023/06/13 08:55:23;;;;;;;2.58;1.10;;;25.70;31.10;;;;;;2586271;53;20977;-71
2023/06/13 08:57:53;;;;;;;3.30;1.37;;;25.70;31.00;;;;;;2586641;53;20936;-71
2023/06/13 09:00:21;;;;;;;2.80;1.30;;;25.70;31.00;;;;;;2340698;55;20969;-71
2023/06/13 09:02:47;;;;;;;2.83;1.45;;;25.80;30.80;;;;;;2340550;54;21285;-72
2023/06/13 09:05:18;;;;;;;2.70;1.27;;;25.90;30.70;;;;;;2586917;53;21004;-70
2023/06/13 09:07:46;;;;;;;2.95;1.37;;;26.00;30.40;;;;;;2340090;54;20964;-70
2023/06/13 09:10:13;;;;;;;3.17;1.52;;;26.00;30.20;;;;;;2587289;53;20937;-72
2023/06/13 09:12:46;;;;;;;2.80;1.40;;;26.10;30.30;;;;;;2340735;55;21982;-70
2023/06/13 09:15:15;;;;;;;2.75;0.98;;;26.20;30.10;;;;;;2341377;54;20996;-70
2023/06/13 09:17:42;;;;;;;2.85;1.30;;;26.20;30.10;;;;;;2587637;53;21783;-71
2023/06/13 09:20:10;;;;;;;2.62;1.25;;;26.30;30.10;;;;;;2343011;55;20996;-70
2023/06/13 09:22:38;;;;;;;2.12;1.00;;;26.40;30.00;;;;;;2344894;55;20953;-70
2023/06/13 09:25:05;;;;;;;2.60;1.20;;;26.40;29.70;;;;;;2566783;53;20964;-69
2023/06/13 09:27:32;;;;;;;3.37;1.60;;;26.50;29.60;;;;;;2562502;53;20943;-71
2023/06/13 09:30:00;;;;;;;2.53;1.30;;;26.50;29.50;;;;;;2342907;55;20925;-71
2023/06/13 09:32:27;;;;;;;3.17;1.55;;;26.60;29.40;;;;;;2588586;53;20932;-72
2023/06/13 09:34:53;;;;;;;3.05;1.37;;;26.70;29.30;;;;;;2320800;54;21079;-70
2023/06/13 09:37:24;;;;;;;4.43;1.62;;;26.70;29.40;;;;;;2340184;54;21147;-72
2023/06/13 09:39:52;;;;;;;2.90;1.50;;;26.70;29.30;;;;;;2341371;55;20992;-70
2023/06/13 09:42:23;;;;;;;2.87;1.40;;;26.80;29.30;;;;;;2588574;53;20945;-71
2023/06/13 09:44:50;;;;;;;3.40;1.42;;;26.80;29.40;;;;;;2342241;55;20971;-71
2023/06/13 09:47:24;;;;;;;2.87;1.30;;;26.90;29.30;;;;;;2588124;53;21787;-71
2023/06/13 09:49:57;;;;;;;2.83;1.20;;;27.00;29.40;;;;;;2588521;53;20964;-71
2023/06/13 09:52:27;;;;;;;3.10;1.45;;;27.00;29.20;;;;;;2586770;53;21493;-70
2023/06/13 09:54:54;;;;;;;2.40;1.27;;;27.10;29.00;;;;;;2341573;55;21103;-71
2023/06/13 09:57:21;;;;;;;3.47;1.52;;;27.20;29.00;;;;;;2342140;55;20979;-69
2023/06/13 09:59:50;;;;;;;2.70;1.33;;;27.20;29.10;;;;;;2342073;55;20936;-72
2023/06/13 10:02:20;;;;;;;2.92;1.27;;;27.30;28.70;;;;;;2588677;53;20961;-68
2023/06/13 10:04:55;;;;;;;4.07;1.52;;;27.40;28.40;;;;;;2585860;53;21009;-70
2023/06/13 10:07:22;;;;;;;2.58;1.23;;;27.40;28.40;;;;;;2312584;54;20961;-70
2023/06/13 10:09:48;;;;;;;1.95;0.82;;;27.50;28.10;;;;;;2567348;53;20976;-71
2023/06/13 10:12:19;;;;;;;3.67;1.62;;;27.50;28.10;;;;;;2341561;54;21012;-70
2023/06/13 10:14:48;;;;;;;2.57;1.30;;;27.60;28.20;;;;;;2588154;53;21426;-71
2023/06/13 10:17:17;;;;;;;3.60;1.40;;;27.70;28.10;;;;;;2330563;54;20947;-71
2023/06/13 10:19:43;;;;;;;2.85;1.40;;;27.80;28.00;;;;;;2329767;54;21033;-72
2023/06/13 10:22:09;;;;;;;2.75;1.30;;;27.80;27.80;;;;;;2341848;55;20972;-70
2023/06/13 10:24:37;;;;;;;2.62;1.20;;;27.90;27.90;;;;;;2341616;55;21023;-71
2023/06/13 10:27:05;;;;;;;3.42;1.52;;;28.00;27.80;;;;;;2549810;54;20910;-70
2023/06/13 10:29:50;;;;;;;3.28;1.42;;;28.00;27.40;;;;;;2549637;54;20953;-72
2023/06/13 10:32:47;;;;;;;3.75;1.58;;;28.10;27.10;;;;;;2540849;53;20948;-73
2023/06/13 10:36:21;;;;;;;2.70;1.40;;;28.20;27.00;;;;;;2554076;53;21350;-71
2023/06/13 10:42:35;;;;;;;2.60;1.30;;;28.30;27.30;;;;;;2547772;54;21005;-72
2023/06/13 10:45:13;;;;;;;3.37;1.00;;;28.40;27.20;;;;;;2310568;54;20889;-73
2023/06/13 10:47:39;;;;;;;2.55;1.40;;;28.50;27.10;;;;;;2517386;54;21395;-71
2023/06/13 10:50:10;;;;;;;3.00;1.35;;;28.50;27.10;;;;;;2296782;55;21811;-73
2023/06/13 10:52:36;;;;;;;2.60;1.30;;;28.70;27.10;;;;;;2292210;54;20982;-71
2023/06/13 10:55:03;;;;;;;2.83;1.30;;;28.60;27.10;;;;;;2272847;55;21058;-72
2023/06/13 10:57:52;;;;;;;3.20;1.62;;;28.70;26.70;;;;;;2506789;54;20970;-72
2023/06/13 11:00:34;;;;;;;2.62;1.48;;;28.70;26.20;;;;;;2275665;54;21401;-73
2023/06/13 11:03:10;;;;;;;3.22;1.27;;;28.80;26.50;;;;;;2511422;54;21503;-70
2023/06/13 11:06:11;;;;;;;2.90;1.60;;;28.90;26.80;;;;;;2520958;54;21457;-72
2023/06/13 11:08:39;;;;;;;3.03;1.62;;;28.90;26.70;;;;;;2532143;53;20954;-71
2023/06/13 11:11:05;;;;;;;2.22;1.10;;;29.00;26.10;;;;;;2506450;54;21713;-72
2023/06/13 11:13:32;;;;;;;3.53;1.50;;;29.00;26.00;;;;;;2505782;54;20950;-72
2023/06/13 11:16:36;;;;;;;5.05;1.60;;;29.10;26.00;;;;;;2506053;54;20950;-72
2023/06/13 11:19:21;;;;;;;2.80;1.23;;;29.10;25.60;;;;;;2274986;54;21012;-72
2023/06/13 11:23:52;;;;;;;3.08;1.50;;;29.20;25.30;;;;;;2552626;53;21050;-73
2023/06/13 11:26:20;;;;;;;3.17;1.37;;;29.30;25.50;;;;;;2536768;54;21495;-72
2023/06/13 11:28:50;;;;;;;3.25;1.25;;;29.30;25.50;;;;;;2537398;54;20943;-72
2023/06/13 11:31:16;;;;;;;3.17;1.50;;;29.30;25.10;;;;;;2538953;53;20978;-73
2023/06/13 11:33:46;;;;;;;3.87;1.40;;;29.30;24.90;;;;;;2301179;55;25434;-71
2023/06/13 11:36:13;;;;;;;2.83;1.05;;;29.40;24.90;;;;;;2532397;53;20951;-73
2023/06/13 11:38:45;;;;;;;2.08;1.08;;;29.40;25.00;;;;;;2291561;55;21006;-73
2023/06/13 11:41:11;;;;;;;2.97;1.20;;;29.40;25.10;;;;;;2536278;53;21268;-71
2023/06/13 11:43:38;;;;;;;2.80;1.40;;;29.50;25.20;;;;;;2310398;55;21374;-72
2023/06/13 11:46:04;;;;;;;3.30;1.50;;;29.50;25.20;;;;;;2549399;54;20937;-72
2023/06/13 11:48:31;;;;;;;2.62;1.40;;;29.60;25.20;;;;;;2310202;55;20957;-72
2023/06/13 11:51:11;;;;;;;3.37;1.45;;;29.60;25.10;;;;;;2312340;54;20961;-71
2023/06/13 11:53:56;;;;;;;3.47;1.17;;;29.70;25.00;;;;;;2533903;53;21457;-72
2023/06/13 11:56:24;;;;;;;2.80;1.40;;;29.70;25.00;;;;;;2570918;53;21051;-72
2023/06/13 11:58:51;;;;;;;2.25;1.30;;;29.80;25.00;;;;;;2322015;55;21009;-73
2023/06/13 12:01:20;;;;;;;3.17;1.27;;;29.80;24.70;;;;;;2553094;53;21017;-72
2023/06/13 12:03:47;;;;;;;2.50;1.33;;;29.90;24.70;;;;;;2551176;53;21393;-73
2023/06/13 12:06:15;;;;;;;3.12;1.35;;;30.00;24.80;;;;;;2310974;54;20941;-72
2023/06/13 12:08:44;;;;;;;3.40;1.52;;;30.00;24.70;;;;;;2545674;54;20917;-70
2023/06/13 12:11:13;;;;;;;2.45;1.23;;;30.00;24.60;;;;;;2549297;54;20941;-73
2023/06/13 12:13:55;;;;;;;2.85;1.42;;;30.10;24.60;;;;;;2562851;53;21013;-73
2023/06/13 12:16:23;;;;;;;2.97;1.67;;;30.20;24.60;;;;;;2548113;53;20933;-73
2023/06/13 12:18:51;;;;;;;2.97;1.60;;;30.20;24.60;;;;;;2548721;54;21405;-73
2023/06/13 12:21:30;;;;;;;2.87;1.40;;;30.30;24.50;;;;;;2533563;54;21066;-73
2023/06/13 12:23:57;;;;;;;4.32;1.35;;;30.30;24.40;;;;;;2299837;54;20980;-73
2023/06/13 12:26:28;;;;;;;3.47;1.62;;;30.30;24.70;;;;;;2550531;54;21028;-73
2023/06/13 12:29:05;;;;;;;3.28;1.42;;;30.40;24.60;;;;;;2549680;54;21001;-72
2023/06/13 12:31:37;;;;;;;2.60;1.37;;;30.40;24.60;;;;;;2549914;54;20937;-71
2023/06/13 12:34:27;;;;;;;2.40;1.27;;;30.50;24.70;;;;;;2549406;54;21036;-72
2023/06/13 12:36:57;;;;;;;3.10;1.33;;;30.50;24.30;;;;;;2545461;54;20937;-73
2023/06/13 12:39:23;;;;;;;2.95;1.40;;;30.60;24.40;;;;;;2525569;54;20986;-72
2023/06/13 12:41:50;;;;;;;3.20;1.27;;;30.60;24.00;;;;;;2540014;54;21077;-72
2023/06/13 12:44:18;;;;;;;2.67;1.40;;;30.70;24.10;;;;;;2309256;55;21012;-71
2023/06/13 12:46:45;;;;;;;3.50;1.62;;;30.70;24.20;;;;;;2546512;54;21804;-72
2023/06/13 12:49:15;;;;;;;4.80;1.62;;;30.80;24.10;;;;;;2323797;54;20907;-73
2023/06/13 12:51:47;;;;;;;3.03;1.60;;;30.80;23.90;;;;;;2554226;53;21524;-71
2023/06/13 12:54:15;;;;;;;3.20;1.65;;;30.80;23.70;;;;;;2545910;53;20905;-73
2023/06/13 12:56:57;;;;;;;2.50;1.20;;;30.90;23.50;;;;;;2308604;55;20921;-72
2023/06/13 12:59:37;;;;;;;3.12;1.35;;;31.00;23.10;;;;;;2548375;53;20928;-74
2023/06/13 13:02:08;;;;;;;2.75;1.15;;;31.00;23.40;;;;;;2308897;55;20939;-73
2023/06/13 13:04:35;;;;;;;2.72;1.40;;;31.00;23.90;;;;;;2309377;55;20958;-73
2023/06/13 13:07:05;;;;;;;2.95;1.40;;;31.10;23.40;;;;;;2545627;53;21063;-74